Skip Navigation Links Skip Navigation Links

Current Weather

Sheboygan County Memorial, Sheboygan, Wis.

For information only: do not use for flight planning or navigation.
Latest weather
Observation time Sunday, May 31, 2020 6:53 AM CDT
Local time Sunday, May 31, 2020 7:25 AM CDT
Flight conditions Visual Meteorological Conditions
Winds
Wind speed calm
Visibility 10 mi.
Sky condition
Ceiling unlimited
Sky clear
Temperature 47°F
Dewpoint 40°F
Altimeter 30.35 in.Hg
Pressure change last 3 hours-0.02 in.Hg
Pressure rising more slowly
Derived measurements
Relative humidity 76%
Wind chill 47°F
Density altitude -418 ft.
Sea-level pressure 30.36 in.Hg
Climate data
Temperature minimum, last 6 hours 39°F
Temperature maximum, last 6 hours 47°F
Remarks
Fully automated report.
Automated weather observing station with precipitation discriminator.
METAR KSBM 311153Z AUTO 00000KT 10SM CLR 08/04 A3035 RMK AO2 SLP281 T00830044 10083 20039 51006

Settings

Location code

InnerDrive.Weather 4.0.6770.0 Release CLR 4.0.30319.42000
Copyright ©2018 Inner Drive Technology. All rights reserved. Portions Copyright ©1986-2018 David Braverman.

Find weather

Site navigation


Skip Navigation Links

Place info

Page info

PayPal - The safer, easier way to pay online!

Return home.

Copyright ©2020 Inner Drive Technology. Purveyors of fine, hand-crafted computer software. Page printed 2020-05-31T12:25:46 UTC.